Time;durP1;ratioP1;P1;durP2;ratioP2;P2;SDS_P1;SDS_P2;PMS_P1;PMS_P2;Temp;Humidity;BMP_temperature;BMP_pressure;BME280_temperature;BME280_humidity;BME280_pressure;Samples;Min_cycle;Max_cycle;Signal;HPM_P1;HPM_P2
2020/12/02 00:01:25;;;;;;;34.67;18.20;;;;;;;1.84;100.00;98811.81;4372657;32;20198;-76
2020/12/02 00:04:02;;;;;;;33.00;16.63;;;;;;;1.92;100.00;98809.78;4373892;32;20758;-75
2020/12/02 00:06:29;;;;;;;32.47;17.30;;;;;;;1.89;100.00;98807.28;4383124;32;20508;-75
2020/12/02 00:08:59;;;;;;;29.60;16.87;;;;;;;1.75;100.00;98810.41;4375469;32;20155;-75
2020/12/02 00:11:28;;;;;;;25.00;15.47;;;;;;;1.85;100.00;98806.59;4373283;32;20151;-75
2020/12/02 00:13:58;;;;;;;27.13;14.67;;;;;;;1.85;100.00;98813.53;4373422;32;20148;-76
2020/12/02 00:16:29;;;;;;;21.13;13.10;;;;;;;1.97;100.00;98813.94;4374768;32;20179;-75
2020/12/02 00:18:57;;;;;;;26.07;14.60;;;;;;;2.03;100.00;98823.28;4374894;32;20254;-75
2020/12/02 00:21:28;;;;;;;20.23;12.87;;;;;;;1.94;100.00;98814.03;4379283;32;20665;-75
2020/12/02 00:23:55;;;;;;;24.87;15.10;;;;;;;2.11;100.00;98810.81;4360439;32;20206;-76
2020/12/02 00:26:24;;;;;;;20.93;13.60;;;;;;;1.96;100.00;98816.59;4360463;32;20546;-74
2020/12/02 00:28:52;;;;;;;25.77;14.77;;;;;;;1.98;100.00;98813.03;4374051;32;20190;-76
2020/12/02 00:31:21;;;;;;;23.97;13.87;;;;;;;1.95;100.00;98812.28;4378869;32;20200;-76
2020/12/02 00:33:49;;;;;;;19.33;13.23;;;;;;;1.84;100.00;98814.44;4375262;32;20237;-76
2020/12/02 00:36:16;;;;;;;19.90;13.10;;;;;;;1.90;100.00;98811.63;4390518;32;20180;-75
2020/12/02 00:38:45;;;;;;;20.97;13.40;;;;;;;1.78;100.00;98807.69;4388554;32;20182;-76
2020/12/02 00:41:13;;;;;;;29.83;15.80;;;;;;;1.78;100.00;98807.69;4369749;32;20286;-76
2020/12/02 00:43:40;;;;;;;25.17;15.27;;;;;;;1.64;100.00;98808.16;4378827;32;20155;-75
2020/12/02 00:46:09;;;;;;;27.23;16.20;;;;;;;1.62;100.00;98806.53;4388175;32;20159;-75
2020/12/02 00:48:37;;;;;;;28.40;15.00;;;;;;;1.55;100.00;98807.62;4389925;32;20575;-75
2020/12/02 00:51:06;;;;;;;23.60;14.30;;;;;;;1.48;100.00;98799.19;4376041;32;20151;-75
2020/12/02 00:53:35;;;;;;;22.30;14.07;;;;;;;1.49;100.00;98805.22;4377153;32;20224;-74
2020/12/02 00:56:08;;;;;;;21.97;14.03;;;;;;;1.59;100.00;98799.69;4389365;32;20146;-74
2020/12/02 00:58:44;;;;;;;22.37;13.57;;;;;;;1.58;100.00;98794.50;4382721;32;20199;-75
2020/12/02 01:01:14;;;;;;;18.50;12.67;;;;;;;1.43;100.00;98805.47;4381868;32;20217;-75
2020/12/02 01:03:43;;;;;;;24.50;14.47;;;;;;;1.40;100.00;98801.22;4360152;32;20219;-76
2020/12/02 01:06:11;;;;;;;22.23;14.30;;;;;;;1.43;100.00;98806.28;4374169;32;20470;-74
2020/12/02 01:08:41;;;;;;;20.23;13.33;;;;;;;1.41;100.00;98796.84;4375216;32;20258;-75
2020/12/02 01:11:15;;;;;;;21.77;13.63;;;;;;;1.37;100.00;98801.31;4373357;32;20154;-75
2020/12/02 01:13:43;;;;;;;18.93;11.63;;;;;;;1.41;100.00;98795.09;4358794;32;20194;-76
2020/12/02 01:16:13;;;;;;;17.87;12.23;;;;;;;1.47;100.00;98797.47;4375665;32;20538;-74
2020/12/02 01:18:41;;;;;;;20.23;13.17;;;;;;;1.54;100.00;98801.59;4364393;32;20635;-75
2020/12/02 01:21:22;;;;;;;19.90;12.20;;;;;;;1.47;100.00;98802.69;4383302;32;20188;-75
2020/12/02 01:23:54;;;;;;;19.60;12.67;;;;;;;1.45;100.00;98804.50;4382752;32;20575;-75
2020/12/02 01:26:26;;;;;;;17.23;11.60;;;;;;;1.47;100.00;98802.69;4378939;32;20167;-74
2020/12/02 01:28:57;;;;;;;15.10;10.23;;;;;;;1.54;100.00;98803.34;4373935;32;20209;-74
2020/12/02 01:31:25;;;;;;;20.83;12.23;;;;;;;1.78;100.00;98799.88;4360401;32;20700;-75
2020/12/02 01:33:53;;;;;;;17.03;11.40;;;;;;;1.87;100.00;98796.09;4384579;32;20168;-75
2020/12/02 01:36:28;;;;;;;21.43;12.90;;;;;;;1.72;100.00;98798.34;4369095;32;20704;-74
2020/12/02 01:38:58;;;;;;;22.30;13.27;;;;;;;1.65;100.00;98801.22;4388366;32;20152;-75
2020/12/02 01:41:27;;;;;;;18.60;11.57;;;;;;;1.59;100.00;98796.22;4389212;32;20170;-75
2020/12/02 01:43:55;;;;;;;17.87;11.00;;;;;;;1.84;100.00;98796.19;4363467;32;20264;-74
2020/12/02 01:46:33;;;;;;;16.13;11.43;;;;;;;1.89;100.00;98795.13;4373667;32;20148;-75
2020/12/02 01:49:24;;;;;;;19.90;12.70;;;;;;;1.88;100.00;98788.19;4363791;32;20202;-76
2020/12/02 01:52:06;;;;;;;19.00;11.07;;;;;;;1.88;100.00;98795.19;4377450;32;20174;-76
2020/12/02 01:54:38;;;;;;;18.20;12.23;;;;;;;1.90;100.00;98790.78;4381920;32;20235;-75
2020/12/02 01:57:13;;;;;;;19.00;12.03;;;;;;;1.89;100.00;98789.91;4364904;32;20180;-74
2020/12/02 01:59:50;;;;;;;21.03;13.47;;;;;;;1.79;100.00;98787.69;4381445;32;20209;-75
2020/12/02 02:02:22;;;;;;;20.20;14.03;;;;;;;1.62;100.00;98794.34;4362789;32;20205;-74
2020/12/02 02:04:59;;;;;;;18.87;11.73;;;;;;;1.74;100.00;98786.09;4379369;32;20171;-74
2020/12/02 02:07:27;;;;;;;17.37;12.07;;;;;;;1.87;100.00;98786.53;4379008;32;20207;-75
2020/12/02 02:09:57;;;;;;;22.57;13.90;;;;;;;1.83;100.00;98784.06;4374389;32;20166;-75
2020/12/02 02:12:49;;;;;;;22.90;13.10;;;;;;;1.72;100.00;98782.69;4369214;32;20190;-75
2020/12/02 02:15:39;;;;;;;19.13;12.10;;;;;;;1.60;100.00;98785.72;4360219;32;20617;-75
2020/12/02 02:18:11;;;;;;;20.30;13.20;;;;;;;1.65;100.00;98790.78;4372709;32;20183;-75
2020/12/02 02:20:44;;;;;;;22.07;13.40;;;;;;;1.68;100.00;98785.47;4362448;32;20209;-75
2020/12/02 02:23:14;;;;;;;19.73;11.97;;;;;;;1.63;100.00;98789.97;4364054;32;20594;-76
2020/12/02 02:25:54;;;;;;;20.60;13.33;;;;;;;1.63;100.00;98788.22;4372033;32;20194;-75
2020/12/02 02:28:21;;;;;;;19.97;12.63;;;;;;;1.61;100.00;98781.37;4386917;32;20572;-76
2020/12/02 02:30:50;;;;;;;20.83;12.30;;;;;;;1.53;100.00;98781.66;4384068;32;20502;-75
2020/12/02 02:33:18;;;;;;;19.07;12.03;;;;;;;1.67;100.00;98774.22;4371602;32;20162;-75
2020/12/02 02:35:46;;;;;;;19.40;12.30;;;;;;;1.82;100.00;98774.56;4373674;32;20167;-75
2020/12/02 02:38:13;;;;;;;22.77;14.27;;;;;;;1.77;100.00;98772.97;4374796;32;20202;-75
2020/12/02 02:40:41;;;;;;;20.07;12.87;;;;;;;1.61;100.00;98768.34;4383332;32;20170;-75
2020/12/02 02:43:09;;;;;;;20.83;13.27;;;;;;;1.75;100.00;98760.91;4358624;32;20584;-75
2020/12/02 02:45:37;;;;;;;19.07;13.03;;;;;;;1.67;100.00;98757.72;4366559;32;20220;-73
2020/12/02 02:48:06;;;;;;;23.63;14.13;;;;;;;1.51;100.00;98760.03;4382799;32;20194;-75
2020/12/02 02:50:35;;;;;;;24.37;13.30;;;;;;;1.64;100.00;98758.69;4374913;32;20523;-74
2020/12/02 02:53:09;;;;;;;25.63;14.03;;;;;;;1.40;100.00;98759.56;4358908;32;20217;-75
2020/12/02 02:55:36;;;;;;;23.03;13.97;;;;;;;1.53;100.00;98755.62;4373985;32;20606;-75
2020/12/02 02:58:04;;;;;;;21.53;13.37;;;;;;;1.49;100.00;98756.59;4377336;32;20205;-75
2020/12/02 03:00:34;;;;;;;21.23;13.43;;;;;;;1.61;100.00;98757.94;4376587;32;20582;-74
2020/12/02 03:03:01;;;;;;;19.23;13.13;;;;;;;1.57;100.00;98754.59;4358070;32;21022;-74
2020/12/02 03:05:29;;;;;;;21.73;13.40;;;;;;;1.63;100.00;98756.97;4373283;32;20263;-75
2020/12/02 03:07:59;;;;;;;24.37;14.23;;;;;;;1.57;100.00;98751.97;4380771;32;20170;-75
2020/12/02 03:10:30;;;;;;;20.03;13.63;;;;;;;1.68;100.00;98751.63;4368775;32;20174;-75
2020/12/02 03:13:04;;;;;;;20.63;13.43;;;;;;;1.69;100.00;98759.37;4383240;32;20163;-75
2020/12/02 03:15:32;;;;;;;22.63;14.00;;;;;;;1.65;100.00;98759.53;4381489;32;20584;-76
2020/12/02 03:18:00;;;;;;;22.83;13.73;;;;;;;1.63;100.00;98758.72;4376451;32;20195;-75
2020/12/02 03:20:33;;;;;;;23.73;13.20;;;;;;;1.59;100.00;98758.00;4374711;32;20177;-75
2020/12/02 03:23:00;;;;;;;23.40;13.87;;;;;;;1.53;100.00;98760.81;4376349;32;20548;-77
2020/12/02 03:25:31;;;;;;;24.00;13.97;;;;;;;1.53;100.00;98759.97;4362005;32;20221;-76
2020/12/02 03:27:59;;;;;;;18.83;12.93;;;;;;;1.59;100.00;98760.63;4360439;32;20201;-76
2020/12/02 03:30:27;;;;;;;25.00;14.73;;;;;;;1.71;100.00;98764.53;4380661;32;20233;-76
2020/12/02 03:32:55;;;;;;;23.57;14.03;;;;;;;1.67;100.00;98763.78;4387838;32;20233;-76
2020/12/02 03:35:23;;;;;;;23.27;13.90;;;;;;;1.73;100.00;98762.72;4387108;32;20163;-76
2020/12/02 03:37:50;;;;;;;24.43;14.30;;;;;;;1.69;100.00;98761.13;4391297;32;20147;-76
2020/12/02 03:40:18;;;;;;;27.67;14.50;;;;;;;1.57;100.00;98762.41;4376518;32;20726;-76
2020/12/02 03:42:45;;;;;;;24.73;15.13;;;;;;;1.57;100.00;98756.38;4390983;32;20112;-76
2020/12/02 03:45:12;;;;;;;20.93;13.23;;;;;;;1.55;100.00;98758.16;4391203;32;20159;-76
2020/12/02 03:47:40;;;;;;;22.50;14.33;;;;;;;1.77;100.00;98759.94;4391502;32;20563;-74
2020/12/02 03:50:08;;;;;;;20.10;12.73;;;;;;;1.96;100.00;98764.50;4388328;32;20150;-75
2020/12/02 03:52:38;;;;;;;23.63;14.40;;;;;;;1.93;100.00;98759.37;4379933;32;20270;-75
2020/12/02 03:55:07;;;;;;;15.90;10.97;;;;;;;2.02;100.00;98751.25;4387236;32;20175;-75
2020/12/02 03:57:35;;;;;;;19.97;12.70;;;;;;;2.09;100.00;98752.69;4381447;32;20619;-76
2020/12/02 04:00:08;;;;;;;21.47;14.40;;;;;;;2.03;100.00;98760.75;4361159;32;20253;-76
2020/12/02 04:02:36;;;;;;;21.63;13.03;;;;;;;1.93;100.00;98759.37;4359589;32;20202;-74
2020/12/02 04:05:05;;;;;;;20.90;12.17;;;;;;;1.83;100.00;98753.66;4380047;32;20171;-75
2020/12/02 04:07:32;;;;;;;23.53;14.13;;;;;;;1.86;100.00;98763.12;4368032;32;20179;-74
2020/12/02 04:10:00;;;;;;;22.13;14.07;;;;;;;1.84;100.00;98752.75;4374452;32;20198;-74
2020/12/02 04:12:28;;;;;;;19.93;12.70;;;;;;;1.72;100.00;98754.06;4383908;32;20228;-76
2020/12/02 04:14:55;;;;;;;22.53;13.80;;;;;;;1.83;100.00;98753.66;4375493;32;20148;-75
2020/12/02 04:17:22;;;;;;;21.67;13.50;;;;;;;1.74;100.00;98752.22;4381262;32;20179;-75
2020/12/02 04:19:49;;;;;;;26.60;14.90;;;;;;;1.75;100.00;98756.53;4363593;32;20644;-76
2020/12/02 04:22:17;;;;;;;19.80;13.63;;;;;;;1.66;100.00;98750.81;4369615;32;20193;-76
2020/12/02 04:24:45;;;;;;;20.07;13.63;;;;;;;1.69;100.00;98756.75;4378435;32;20241;-76
2020/12/02 04:27:13;;;;;;;21.20;13.87;;;;;;;1.75;100.00;98761.75;4373270;32;20171;-76
2020/12/02 04:29:40;;;;;;;22.47;14.10;;;;;;;1.80;100.00;98751.16;4382833;32;20162;-75
2020/12/02 04:32:07;;;;;;;21.30;13.70;;;;;;;1.68;100.00;98749.84;4388569;32;20190;-73
2020/12/02 04:34:34;;;;;;;22.10;14.57;;;;;;;1.77;100.00;98753.06;4361738;32;20268;-76
2020/12/02 04:37:03;;;;;;;21.27;13.87;;;;;;;1.73;100.00;98753.16;4381099;32;20576;-75
2020/12/02 04:39:34;;;;;;;24.53;15.00;;;;;;;1.79;100.00;98751.22;4390537;32;20146;-76
2020/12/02 04:42:06;;;;;;;22.03;14.90;;;;;;;1.58;100.00;98745.88;4384060;32;20236;-76
2020/12/02 04:44:40;;;;;;;22.13;13.80;;;;;;;1.66;100.00;98746.44;4375388;32;20567;-75
2020/12/02 04:47:12;;;;;;;22.27;13.77;;;;;;;1.74;100.00;98738.38;4373468;32;20597;-76
2020/12/02 04:49:54;;;;;;;23.73;14.50;;;;;;;1.83;100.00;98745.84;4387129;32;20182;-76
2020/12/02 04:52:36;;;;;;;20.70;14.37;;;;;;;1.89;100.00;98736.94;4385772;32;20209;-74
2020/12/02 04:55:10;;;;;;;23.60;13.83;;;;;;;1.79;100.00;98739.06;4377607;32;20186;-74
2020/12/02 04:57:44;;;;;;;22.47;14.40;;;;;;;1.72;100.00;98741.03;4374543;32;20563;-72
2020/12/02 05:00:32;;;;;;;21.07;13.97;;;;;;;1.57;100.00;98733.75;4384501;32;20225;-73
2020/12/02 05:03:06;;;;;;;16.47;11.70;;;;;;;1.60;100.00;98736.25;4383422;32;20222;-74
2020/12/02 05:05:38;;;;;;;15.50;10.67;;;;;;;1.90;100.00;98738.66;4382102;32;20167;-73
2020/12/02 05:08:38;;;;;;;21.90;14.53;;;;;;;2.09;100.00;98740.53;4383177;32;20166;-74
2020/12/02 05:11:10;;;;;;;24.30;15.23;;;;;;;1.96;100.00;98733.22;4382894;32;20158;-75
2020/12/02 05:13:41;;;;;;;22.33;14.13;;;;;;;1.64;100.00;98737.84;4373304;32;20514;-75
2020/12/02 05:16:14;;;;;;;20.43;14.00;;;;;;;1.41;100.00;98740.41;4374339;32;20175;-75
2020/12/02 05:18:44;;;;;;;22.20;15.00;;;;;;;1.36;100.00;98749.28;4373915;32;20639;-76
2020/12/02 05:21:19;;;;;;;20.53;14.53;;;;;;;1.35;100.00;98745.81;4372908;32;20633;-73
2020/12/02 05:24:03;;;;;;;20.53;13.73;;;;;;;1.42;100.00;98752.53;4374545;32;20221;-77
2020/12/02 05:26:33;;;;;;;24.50;14.93;;;;;;;1.49;100.00;98743.59;4373055;32;20830;-74
2020/12/02 05:29:04;;;;;;;19.93;14.17;;;;;;;1.46;100.00;98753.28;4380776;32;20637;-74
2020/12/02 05:31:34;;;;;;;17.93;13.27;;;;;;;1.44;100.00;98755.06;4360143;32;20245;-74
2020/12/02 05:34:12;;;;;;;19.13;14.03;;;;;;;1.52;100.00;98751.31;4376012;32;20238;-78
2020/12/02 05:36:45;;;;;;;20.20;14.80;;;;;;;1.46;100.00;98748.09;4379197;32;20189;-75
2020/12/02 05:39:22;;;;;;;20.37;13.87;;;;;;;1.56;100.00;98759.84;4374707;32;20190;-75
2020/12/02 05:41:53;;;;;;;22.17;13.80;;;;;;;1.57;100.00;98757.19;4376872;32;20265;-75
2020/12/02 05:44:23;;;;;;;21.83;14.40;;;;;;;1.50;100.00;98760.94;4375989;32;20219;-76
2020/12/02 05:46:57;;;;;;;20.47;13.90;;;;;;;1.54;100.00;98753.88;4369584;32;20205;-75
2020/12/02 05:49:35;;;;;;;21.13;13.80;;;;;;;1.50;100.00;98755.72;4362909;32;20230;-75
2020/12/02 05:52:03;;;;;;;19.30;13.07;;;;;;;1.41;100.00;98757.78;4347302;33;20263;-75
2020/12/02 05:54:33;;;;;;;18.67;12.47;;;;;;;1.46;100.00;98755.88;4355954;32;20646;-75
2020/12/02 05:57:03;;;;;;;18.13;13.23;;;;;;;1.49;100.00;98746.19;4354306;32;20187;-76
2020/12/02 05:59:31;;;;;;;19.10;13.23;;;;;;;1.52;100.00;98750.44;4360335;32;20187;-75
2020/12/02 06:02:01;;;;;;;17.10;13.33;;;;;;;1.53;100.00;98749.56;4360547;32;20194;-73
2020/12/02 06:04:28;;;;;;;19.07;12.80;;;;;;;1.50;100.00;98753.13;4357307;32;20231;-75
2020/12/02 06:06:57;;;;;;;17.87;13.07;;;;;;;1.37;100.00;98754.47;4348765;32;20174;-77
2020/12/02 06:09:39;;;;;;;17.50;13.27;;;;;;;1.36;100.00;98749.28;4351845;32;20206;-75
2020/12/02 06:12:11;;;;;;;16.70;12.50;;;;;;;1.40;100.00;98754.34;4344109;32;20163;-74
2020/12/02 06:14:39;;;;;;;16.33;12.90;;;;;;;1.52;100.00;98738.28;4341267;33;20301;-74
2020/12/02 06:17:10;;;;;;;15.30;12.87;;;;;;;1.61;100.00;98748.38;4346428;32;20661;-75
2020/12/02 06:19:49;;;;;;;19.10;13.03;;;;;;;1.57;100.00;98751.97;4344586;33;20224;-76
2020/12/02 06:22:49;;;;;;;18.37;13.10;;;;;;;1.61;100.00;98748.38;4314488;32;20159;-73
2020/12/02 06:25:46;;;;;;;16.63;12.17;;;;;;;1.71;100.00;98752.34;4337162;33;20477;-75
2020/12/02 06:28:17;;;;;;;15.97;12.33;;;;;;;1.62;100.00;98744.88;4322421;32;20253;-74
2020/12/02 06:30:56;;;;;;;16.77;13.13;;;;;;;1.67;100.00;98749.91;4340956;32;20239;-75
2020/12/02 06:33:32;;;;;;;16.67;11.90;;;;;;;1.69;100.00;98743.75;4335713;32;20234;-75
2020/12/02 06:36:17;;;;;;;17.27;12.93;;;;;;;1.71;100.00;98749.72;4337689;33;20187;-78
2020/12/02 06:38:45;;;;;;;17.33;12.47;;;;;;;1.61;100.00;98743.16;4339829;33;20498;-77
2020/12/02 06:41:35;;;;;;;17.07;12.67;;;;;;;1.61;100.00;98745.78;4346066;32;20650;-74
2020/12/02 06:44:45;;;;;;;18.93;13.00;;;;;;;1.52;100.00;98748.69;4347038;32;20180;-77
2020/12/02 06:47:32;;;;;;;15.87;12.70;;;;;;;1.47;100.00;98740.19;4340767;32;20191;-74
2020/12/02 06:50:08;;;;;;;15.80;12.47;;;;;;;1.61;100.00;98737.09;4354146;32;20163;-75
2020/12/02 06:52:37;;;;;;;19.70;13.70;;;;;;;1.61;100.00;98743.16;4352193;32;20575;-75
2020/12/02 06:55:13;;;;;;;17.33;13.27;;;;;;;1.66;100.00;98740.38;4340032;33;20234;-74
2020/12/02 06:57:41;;;;;;;17.67;13.90;;;;;;;1.59;100.00;98739.78;4359476;32;20751;-75
2020/12/02 07:00:18;;;;;;;19.33;13.67;;;;;;;1.60;100.00;98741.47;4354583;33;20228;-75
2020/12/02 07:02:52;;;;;;;17.70;13.50;;;;;;;1.64;100.00;98739.59;4355191;33;20641;-75
2020/12/02 07:05:28;;;;;;;17.73;13.00;;;;;;;1.66;100.00;98741.25;4346143;33;20190;-75
2020/12/02 07:08:05;;;;;;;16.70;12.67;;;;;;;1.70;100.00;98737.63;4343677;33;20659;-76
2020/12/02 07:10:32;;;;;;;18.70;13.87;;;;;;;1.88;100.00;98733.47;4353380;33;20616;-73
2020/12/02 07:13:00;;;;;;;17.80;12.83;;;;;;;1.72;100.00;98741.03;4348433;33;20278;-75
2020/12/02 07:15:28;;;;;;;14.83;11.23;;;;;;;1.66;100.00;98740.38;4350663;33;20245;-76
2020/12/02 07:18:09;;;;;;;18.23;12.97;;;;;;;1.73;100.00;98741.88;4345587;32;20211;-75
2020/12/02 07:20:38;;;;;;;18.00;12.87;;;;;;;1.53;100.00;98745.19;4342953;33;20205;-74
2020/12/02 07:23:06;;;;;;;19.07;13.63;;;;;;;1.47;100.00;98748.00;4350568;33;20238;-75
2020/12/02 07:25:33;;;;;;;19.57;13.97;;;;;;;1.44;100.00;98753.31;4341403;33;20171;-74
2020/12/02 07:28:00;;;;;;;19.47;14.37;;;;;;;1.47;100.00;98750.63;4351113;33;20230;-75
2020/12/02 07:30:32;;;;;;;21.33;14.00;;;;;;;1.59;100.00;98750.19;4356463;33;20606;-75
2020/12/02 07:33:10;;;;;;;17.60;13.83;;;;;;;1.36;100.00;98751.87;4348691;33;20183;-75
2020/12/02 07:35:39;;;;;;;19.40;13.27;;;;;;;1.37;100.00;98751.00;4355446;33;20152;-76
2020/12/02 07:38:08;;;;;;;19.23;13.53;;;;;;;1.38;100.00;98753.53;4352839;33;20159;-77
2020/12/02 07:40:39;;;;;;;19.43;13.97;;;;;;;1.39;100.00;98752.66;4345134;33;20194;-74
2020/12/02 07:43:17;;;;;;;18.07;13.03;;;;;;;1.35;100.00;98758.84;4345219;33;20680;-73
2020/12/02 07:45:45;;;;;;;20.37;14.50;;;;;;;1.34;100.00;98754.56;4343297;33;20173;-76
2020/12/02 07:48:19;;;;;;;18.37;13.73;;;;;;;1.41;100.00;98758.63;4350088;33;20499;-75
2020/12/02 07:50:53;;;;;;;23.03;14.57;;;;;;;1.51;100.00;98752.22;4339928;33;20165;-76
2020/12/02 07:53:52;;;;;;;19.33;13.50;;;;;;;1.35;100.00;98758.84;4353664;32;20224;-77
2020/12/02 07:56:25;;;;;;;16.63;12.77;;;;;;;1.40;100.00;98750.91;4340807;32;20213;-77
2020/12/02 07:58:55;;;;;;;23.40;15.07;;;;;;;1.50;100.00;98744.44;4351494;33;20160;-77
2020/12/02 08:02:00;;;;;;;22.07;14.90;;;;;;;1.56;100.00;98744.25;4362773;32;20174;-75
2020/12/02 08:04:35;;;;;;;20.87;15.50;;;;;;;1.48;100.00;98757.53;4369599;32;20166;-77
2020/12/02 08:07:06;;;;;;;20.73;15.47;;;;;;;1.51;100.00;98751.37;4353491;32;20221;-76
2020/12/02 08:09:37;;;;;;;19.27;14.50;;;;;;;1.46;100.00;98743.69;4354048;32;20187;-76
2020/12/02 08:12:08;;;;;;;19.93;14.40;;;;;;;1.40;100.00;98753.50;4344928;32;20238;-75
2020/12/02 08:14:40;;;;;;;22.07;15.50;;;;;;;1.54;100.00;98752.13;4349039;32;20188;-74
2020/12/02 08:17:18;;;;;;;22.97;15.13;;;;;;;1.68;100.00;98749.84;4356576;32;20241;-74
2020/12/02 08:19:48;;;;;;;21.00;14.83;;;;;;;1.75;100.00;98751.34;4356557;33;20203;-75
2020/12/02 08:22:26;;;;;;;20.37;14.53;;;;;;;1.80;100.00;98758.16;4347337;32;20220;-75
2020/12/02 08:25:14;;;;;;;17.93;13.00;;;;;;;1.78;100.00;98752.97;4363499;32;20189;-74
2020/12/02 08:27:46;;;;;;;18.33;13.17;;;;;;;1.91;100.00;98758.59;4365302;32;20576;-77
2020/12/02 08:30:20;;;;;;;21.00;14.03;;;;;;;1.85;100.00;98757.06;4356407;32;20226;-75
2020/12/02 08:32:53;;;;;;;20.67;14.43;;;;;;;1.87;100.00;98757.00;4352423;32;20584;-75
2020/12/02 08:35:26;;;;;;;20.20;14.57;;;;;;;1.75;100.00;98756.53;4341183;32;20532;-76
2020/12/02 08:37:56;;;;;;;21.50;15.30;;;;;;;1.88;100.00;98753.50;4343154;33;20178;-76
2020/12/02 08:40:40;;;;;;;21.27;14.73;;;;;;;1.77;100.00;98753.06;4345401;33;20629;-76
2020/12/02 08:43:36;;;;;;;21.20;14.37;;;;;;;1.78;100.00;98755.59;4359098;32;20219;-76
2020/12/02 08:46:14;;;;;;;25.20;16.57;;;;;;;1.79;100.00;98756.44;4348873;33;20209;-77
2020/12/02 08:48:43;;;;;;;22.17;15.17;;;;;;;1.67;100.00;98750.78;4341554;32;20159;-76
2020/12/02 08:51:13;;;;;;;24.93;15.43;;;;;;;1.65;100.00;98749.97;4347109;32;20164;-77
2020/12/02 08:53:41;;;;;;;22.63;15.07;;;;;;;1.74;100.00;98759.22;4343669;33;20156;-76
2020/12/02 08:56:22;;;;;;;22.20;16.03;;;;;;;1.68;100.00;98752.44;4341478;32;20457;-76
2020/12/02 08:58:49;;;;;;;23.13;15.57;;;;;;;1.75;100.00;98748.72;4346526;32;20685;-76
2020/12/02 09:01:17;;;;;;;22.07;15.77;;;;;;;1.76;100.00;98746.97;4357370;32;20164;-76
2020/12/02 09:03:44;;;;;;;22.13;15.67;;;;;;;1.68;100.00;98739.41;4353836;32;20183;-76
2020/12/02 09:06:15;;;;;;;23.60;16.57;;;;;;;1.71;100.00;98744.53;4351918;32;20179;-76
2020/12/02 09:08:43;;;;;;;23.40;16.00;;;;;;;1.69;100.00;98743.75;4357967;32;20266;-76
2020/12/02 09:11:11;;;;;;;21.60;15.87;;;;;;;1.82;100.00;98735.50;4357546;32;20140;-76
2020/12/02 09:13:40;;;;;;;25.37;15.93;;;;;;;1.86;100.00;98734.44;4357593;32;20167;-76
2020/12/02 09:16:08;;;;;;;22.20;15.77;;;;;;;2.00;100.00;98730.44;4356146;32;20203;-76
2020/12/02 09:18:35;;;;;;;20.73;15.47;;;;;;;2.06;100.00;98725.00;4348848;32;20222;-76
2020/12/02 09:21:03;;;;;;;27.13;17.03;;;;;;;1.82;100.00;98730.28;4340798;32;20195;-76
2020/12/02 09:23:30;;;;;;;23.17;15.77;;;;;;;1.65;100.00;98731.75;4349725;32;20155;-76
2020/12/02 09:25:57;;;;;;;25.23;17.37;;;;;;;1.77;100.00;98724.41;4354502;32;20170;-76
2020/12/02 09:28:25;;;;;;;21.57;15.40;;;;;;;1.95;100.00;98727.16;4345851;33;20270;-76
2020/12/02 09:30:53;;;;;;;24.67;15.47;;;;;;;2.09;100.00;98719.66;4340324;32;20235;-76
2020/12/02 09:33:20;;;;;;;22.33;14.53;;;;;;;2.17;100.00;98732.41;4342839;33;20658;-77
2020/12/02 09:35:48;;;;;;;25.43;16.57;;;;;;;2.14;100.00;98727.31;4341296;32;20479;-75
2020/12/02 09:38:17;;;;;;;20.80;14.60;;;;;;;1.96;100.00;98718.44;4351276;33;20225;-76
2020/12/02 09:40:44;;;;;;;21.07;14.63;;;;;;;2.06;100.00;98722.41;4341701;32;20201;-76
2020/12/02 09:43:51;;;;;;;22.23;13.97;;;;;;;2.16;100.00;98720.31;4342752;33;20163;-76
2020/12/02 09:46:20;;;;;;;22.13;13.70;;;;;;;2.36;100.00;98716.94;4342508;33;20155;-76
2020/12/02 09:48:48;;;;;;;23.10;14.63;;;;;;;2.23;100.00;98712.19;4339496;33;20191;-75
2020/12/02 09:51:21;;;;;;;21.87;14.30;;;;;;;1.86;100.00;98711.00;4335909;33;20187;-75
2020/12/02 09:53:49;;;;;;;20.33;14.37;;;;;;;1.95;100.00;98708.06;4337277;32;20771;-76
2020/12/02 09:56:17;;;;;;;21.50;14.63;;;;;;;1.97;100.00;98704.50;4340157;32;20203;-75
2020/12/02 09:58:45;;;;;;;21.77;14.10;;;;;;;1.96;100.00;98705.41;4344747;32;20187;-76
2020/12/02 10:01:17;;;;;;;23.03;14.73;;;;;;;2.00;100.00;98696.56;4341124;33;20152;-77
2020/12/02 10:04:19;;;;;;;23.13;14.83;;;;;;;2.29;100.00;98698.06;4337311;33;20279;-75
2020/12/02 10:07:26;;;;;;;22.57;15.33;;;;;;;2.26;100.00;98690.34;4340711;32;20225;-76
2020/12/02 10:10:19;;;;;;;23.67;14.33;;;;;;;2.30;100.00;98686.72;4338063;33;20151;-75
2020/12/02 10:13:07;;;;;;;22.80;14.43;;;;;;;2.09;100.00;98677.13;4349935;32;20223;-76
2020/12/02 10:15:45;;;;;;;21.40;14.70;;;;;;;2.30;100.00;98677.13;4355358;32;20164;-76
2020/12/02 10:18:25;;;;;;;21.43;13.70;;;;;;;2.45;100.00;98670.44;4345429;32;20673;-75
2020/12/02 10:21:04;;;;;;;20.23;13.60;;;;;;;2.02;100.00;98665.25;4342170;32;20874;-76
2020/12/02 10:24:02;;;;;;;21.50;13.07;;;;;;;2.30;100.00;98669.31;4341095;33;20203;-77
2020/12/02 10:26:54;;;;;;;19.87;13.07;;;;;;;2.49;100.00;98666.81;4341974;32;20242;-75
2020/12/02 10:29:30;;;;;;;20.30;12.67;;;;;;;2.70;100.00;98655.50;4355449;32;20224;-76
2020/12/02 10:32:06;;;;;;;19.17;12.87;;;;;;;2.59;98.53;98660.31;4340708;33;20626;-75
2020/12/02 10:34:38;;;;;;;20.30;14.40;;;;;;;2.32;100.00;98651.84;4352586;32;20190;-76
2020/12/02 10:37:10;;;;;;;21.03;13.40;;;;;;;2.19;100.00;98652.41;4340508;33;20175;-76
2020/12/02 10:39:37;;;;;;;24.93;17.10;;;;;;;2.20;99.59;98648.88;4344243;32;20482;-76
2020/12/02 10:42:13;;;;;;;20.00;14.27;;;;;;;2.45;100.00;98639.16;4352235;33;20166;-76
2020/12/02 10:44:55;;;;;;;21.77;13.97;;;;;;;2.55;98.08;98635.28;4356404;32;20165;-76
2020/12/02 10:47:52;;;;;;;20.33;14.63;;;;;;;2.06;99.26;98625.97;4341927;33;20164;-76
2020/12/02 10:50:24;;;;;;;22.63;14.43;;;;;;;2.24;99.91;98629.59;4341696;33;20171;-76
2020/12/02 10:52:55;;;;;;;21.30;14.23;;;;;;;2.13;100.00;98623.97;4341181;33;20156;-76
2020/12/02 10:55:25;;;;;;;20.77;13.20;;;;;;;2.20;99.78;98617.59;4353983;32;20168;-75
2020/12/02 10:57:58;;;;;;;23.40;14.63;;;;;;;2.06;98.04;98612.09;4341709;32;20262;-75
2020/12/02 11:00:26;;;;;;;22.70;14.70;;;;;;;2.03;99.05;98615.66;4343413;33;20211;-76
2020/12/02 11:03:11;;;;;;;23.20;15.57;;;;;;;2.19;99.15;98605.50;4353783;33;20180;-75
2020/12/02 11:05:38;;;;;;;19.93;13.63;;;;;;;2.06;99.44;98609.47;4351244;33;20186;-76
2020/12/02 11:08:12;;;;;;;22.53;14.57;;;;;;;2.09;97.15;98605.00;4340110;32;20192;-76
2020/12/02 11:10:52;;;;;;;21.37;14.03;;;;;;;2.16;98.75;98610.81;4345570;33;20229;-77
2020/12/02 11:13:29;;;;;;;21.07;13.80;;;;;;;1.95;97.13;98596.03;4347827;33;20190;-77
2020/12/02 11:15:59;;;;;;;24.53;15.53;;;;;;;2.14;98.09;98594.38;4338291;33;20183;-76
2020/12/02 11:18:51;;;;;;;21.70;13.70;;;;;;;1.98;97.37;98593.28;4338544;32;20297;-76
2020/12/02 11:21:30;;;;;;;22.60;14.57;;;;;;;2.00;98.45;98588.88;4340294;33;20148;-76
2020/12/02 11:24:15;;;;;;;20.40;14.30;;;;;;;2.00;98.63;98588.88;4343945;33;20258;-76
2020/12/02 11:26:43;;;;;;;20.83;14.17;;;;;;;1.82;98.06;98584.41;4342380;32;20177;-76
2020/12/02 11:29:14;;;;;;;22.60;14.43;;;;;;;1.77;98.00;98581.13;4346322;33;20187;-76
2020/12/02 11:31:53;;;;;;;23.03;15.33;;;;;;;1.77;98.64;98576.75;4349599;33;20233;-77
2020/12/02 11:34:36;;;;;;;20.87;13.10;;;;;;;1.82;98.99;98581.78;4350126;33;20189;-76
2020/12/02 11:37:07;;;;;;;23.33;15.43;;;;;;;1.64;98.08;98573.78;4353619;32;20908;-76
2020/12/02 11:39:53;;;;;;;27.37;16.03;;;;;;;1.70;98.22;98575.28;4350840;32;20218;-76
2020/12/02 11:42:30;;;;;;;23.00;15.73;;;;;;;1.76;99.22;98569.84;4350048;32;20188;-77
2020/12/02 11:45:00;;;;;;;22.00;14.70;;;;;;;1.70;98.76;98570.94;4351662;32;20221;-76